TimeCST,TemperatureF,Dew PointF,Humidity,Sea Level PressureIn,VisibilityMPH,Wind Direction,Wind SpeedMPH,Gust SpeedMPH,PrecipitationIn,Events,Conditions,WindDirDegrees,DateUTC
12:53 AM,41.0,30.9,67,30.19,10.0,Calm,Calm,-,N/A,,Clear,0,2012-11-04 05:53:00
1:53 AM,37.9,30.0,73,30.19,10.0,Calm,Calm,-,N/A,,Clear,0,2012-11-04 07:53:00
2:53 AM,36.0,28.9,76,30.20,10.0,NNE,3.5,-,N/A,,Clear,20,2012-11-04 08:53:00
3:53 AM,35.1,28.9,78,30.20,10.0,Calm,Calm,-,N/A,,Clear,0,2012-11-04 09:53:00
4:53 AM,36.0,28.9,76,30.21,10.0,Calm,Calm,-,N/A,,Clear,0,2012-11-04 10:53:00
5:53 AM,33.1,28.0,82,30.22,10.0,Calm,Calm,-,N/A,,Clear,0,2012-11-04 11:53:00
6:53 AM,35.1,28.0,76,30.21,10.0,Calm,Calm,-,N/A,,Clear,0,2012-11-04 12:53:00
7:53 AM,36.0,30.0,79,30.23,10.0,Calm,Calm,-,N/A,,Clear,0,2012-11-04 13:53:00
8:53 AM,50.0,37.0,61,30.22,10.0,Calm,Calm,-,N/A,,Clear,0,2012-11-04 14:53:00
9:53 AM,55.9,36.0,47,30.21,10.0,SSE,4.6,-,N/A,,Clear,160,2012-11-04 15:53:00
10:53 AM,60.1,35.1,39,30.20,10.0,South,4.6,-,N/A,,Clear,170,2012-11-04 16:53:00
11:53 AM,64.0,35.1,34,30.17,10.0,South,5.8,-,N/A,,Clear,180,2012-11-04 17:53:00
12:53 PM,66.0,33.1,29,30.13,10.0,SSE,5.8,-,N/A,,Clear,160,2012-11-04 18:53:00
1:53 PM,69.1,30.9,24,30.09,10.0,SSE,6.9,-,N/A,,Clear,160,2012-11-04 19:53:00
2:53 PM,69.1,28.9,22,30.07,10.0,Variable,6.9,-,N/A,,Clear,0,2012-11-04 20:53:00
3:53 PM,69.1,28.9,22,30.05,10.0,South,5.8,-,N/A,,Clear,170,2012-11-04 21:53:00
4:53 PM,66.9,28.0,23,30.04,10.0,South,3.5,-,N/A,,Clear,180,2012-11-04 22:53:00
5:53 PM,64.0,26.1,24,30.05,10.0,Calm,Calm,-,N/A,,Clear,0,2012-11-04 23:53:00
6:53 PM,61.0,28.0,29,30.06,10.0,Calm,Calm,-,N/A,,Clear,0,2012-11-05 00:53:00
7:53 PM,55.0,27.0,34,30.07,10.0,WSW,3.5,-,N/A,,Clear,250,2012-11-05 01:53:00
8:53 PM,53.1,28.9,40,30.05,10.0,Calm,Calm,-,N/A,,Clear,0,2012-11-05 02:53:00
9:53 PM,55.0,32.0,42,30.05,10.0,South,3.5,-,N/A,,Clear,180,2012-11-05 03:53:00
10:53 PM,57.2,33.8,41,30.05,10.0,South,3.5,-,N/A,,Clear,180,2012-11-05 04:53:00